Time;durP1;ratioP1;P1;durP2;ratioP2;P2;SDS_P1;SDS_P2;PMS_P1;PMS_P2;Temp;Humidity;BMP_temperature;BMP_pressure;BME280_temperature;BME280_humidity;BME280_pressure;Samples;Min_cycle;Max_cycle;Signal;HPM_P1;HPM_P2
2023/01/19 00:00:23;;;;;;;0.70;0.70;;;;;;;-2.96;85.49;95800.87;29373;226;63009;-65
2023/01/19 00:00:54;;;;;;;0.70;0.70;;;;;;;-2.98;85.57;95800.31;29373;224;63005;-65
2023/01/19 00:01:26;;;;;;;0.70;0.70;;;;;;;-3.00;85.55;95797.09;29373;227;63009;-64
2023/01/19 00:02:00;;;;;;;0.70;0.70;;;;;;;-2.98;85.90;95799.50;29373;260;63005;-66
2023/01/19 00:02:32;;;;;;;0.70;0.70;;;;;;;-3.00;85.56;95797.09;29373;203;63009;-65
2023/01/19 00:03:04;;;;;;;0.70;0.70;;;;;;;-3.00;85.86;95797.09;29373;198;63004;-65
2023/01/19 00:03:35;;;;;;;0.70;0.70;;;;;;;-3.03;85.90;95798.38;29373;230;63009;-64
2023/01/19 00:04:08;;;;;;;0.70;0.70;;;;;;;-3.03;86.16;95802.88;29373;213;63011;-64
2023/01/19 00:04:40;;;;;;;0.80;0.80;;;;;;;-3.02;86.07;95804.47;29371;221;64013;-65
2023/01/19 00:05:12;;;;;;;0.70;0.70;;;;;;;-3.01;86.42;95800.78;29373;220;63004;-65
2023/01/19 00:05:45;;;;;;;0.75;0.75;;;;;;;-3.01;86.19;95802.63;29373;329;63023;-65
2023/01/19 00:06:20;;;;;;;0.75;0.75;;;;;;;-2.99;86.20;95803.19;29373;222;63005;-64
2023/01/19 00:06:51;;;;;;;0.70;0.70;;;;;;;-2.96;85.74;95808.84;29371;204;64014;-66
2023/01/19 00:07:26;;;;;;;0.70;0.70;;;;;;;-2.94;85.65;95809.44;29373;223;63005;-64
2023/01/19 00:08:13;;;;;;;0.70;0.70;;;;;;;-2.90;85.35;95802.63;29373;276;63009;-67
2023/01/19 00:08:44;;;;;;;0.80;0.80;;;;;;;-2.95;85.09;95809.66;29373;280;63005;-65
2023/01/19 00:09:16;;;;;;;0.80;0.80;;;;;;;-2.96;85.23;95797.44;29371;197;64012;-66
2023/01/19 00:09:47;;;;;;;0.70;0.70;;;;;;;-2.97;85.47;95807.25;29373;228;63004;-66
2023/01/19 00:10:19;;;;;;;0.70;0.70;;;;;;;-2.98;85.18;95807.47;29373;196;63009;-65
2023/01/19 00:10:52;;;;;;;0.70;0.70;;;;;;;-3.00;85.28;95810.34;29373;198;63004;-65
2023/01/19 00:11:23;;;;;;;0.70;0.70;;;;;;;-3.01;85.22;95805.28;29373;202;63009;-63
2023/01/19 00:11:55;;;;;;;0.70;0.70;;;;;;;-3.01;85.54;95811.41;29373;309;63004;-64
2023/01/19 00:12:28;;;;;;;0.70;0.70;;;;;;;-3.00;85.34;95813.00;29373;347;63008;-65
2023/01/19 00:12:59;;;;;;;0.70;0.70;;;;;;;-3.00;85.21;95813.00;29371;204;64008;-64
2023/01/19 00:13:31;;;;;;;0.70;0.70;;;;;;;-3.01;85.40;95811.41;29373;203;63008;-65
2023/01/19 00:14:03;;;;;;;0.70;0.70;;;;;;;-3.02;85.69;95809.78;29373;266;63005;-64
2023/01/19 00:14:37;;;;;;;0.70;0.70;;;;;;;-3.04;85.48;95807.38;29373;205;63027;-64
2023/01/19 00:15:12;;;;;;;0.70;0.70;;;;;;;-3.03;85.93;95808.16;29373;222;63005;-65
2023/01/19 00:15:44;;;;;;;0.70;0.70;;;;;;;-3.01;86.21;95806.09;29373;345;63009;-65
2023/01/19 00:16:17;;;;;;;0.70;0.70;;;;;;;-3.02;85.78;95807.13;29373;199;63007;-64
2023/01/19 00:16:51;;;;;;;0.70;0.70;;;;;;;-2.96;85.97;95808.03;29373;283;63009;-65
2023/01/19 00:17:24;;;;;;;0.70;0.70;;;;;;;-2.96;85.71;95808.84;29371;271;64009;-65
2023/01/19 00:17:55;;;;;;;0.70;0.70;;;;;;;-2.97;85.80;95807.25;29373;259;63009;-65
2023/01/19 00:18:26;;;;;;;0.70;0.70;;;;;;;-2.97;85.54;95809.09;29373;220;63004;-64
2023/01/19 00:18:57;;;;;;;0.70;0.70;;;;;;;-2.98;85.30;95805.62;29373;220;63009;-65
2023/01/19 00:19:29;;;;;;;0.70;0.70;;;;;;;-3.01;85.55;95806.09;29373;209;63004;-65
2023/01/19 00:20:02;;;;;;;1.12;1.12;;;;;;;-3.01;85.40;95811.41;29373;208;63008;-64
2023/01/19 00:20:34;;;;;;;0.70;0.70;;;;;;;-2.99;85.52;95809.31;29373;197;63005;-64
2023/01/19 00:21:06;;;;;;;0.80;0.80;;;;;;;-3.00;85.40;95802.41;29373;198;63009;-65
2023/01/19 00:21:37;;;;;;;0.80;0.80;;;;;;;-2.98;85.73;95805.62;29373;253;63005;-64
2023/01/19 00:22:08;;;;;;;0.70;0.70;;;;;;;-2.99;85.67;95811.97;29373;226;63009;-65
2023/01/19 00:22:39;;;;;;;0.70;0.70;;;;;;;-2.98;85.76;95810.13;29371;203;64009;-65
2023/01/19 00:23:11;;;;;;;0.70;0.70;;;;;;;-2.97;86.16;95807.25;29373;209;63009;-65
2023/01/19 00:23:46;;;;;;;0.70;0.70;;;;;;;-2.96;86.08;95803.53;29373;242;63005;-65
2023/01/19 00:24:18;;;;;;;0.75;0.75;;;;;;;-2.93;85.44;95808.37;29373;282;63009;-65
2023/01/19 00:24:49;;;;;;;0.70;0.70;;;;;;;-2.92;85.71;95804.69;29373;227;63004;-64
2023/01/19 00:25:20;;;;;;;0.70;0.70;;;;;;;-2.91;85.21;95808.97;29373;221;63009;-65
2023/01/19 00:25:52;;;;;;;0.70;0.70;;;;;;;-2.94;85.41;95806.78;29373;399;63004;-64
2023/01/19 00:26:23;;;;;;;0.80;0.80;;;;;;;-2.94;85.36;95806.78;29373;227;63009;-65
2023/01/19 00:26:54;;;;;;;0.70;0.70;;;;;;;-2.95;85.22;95815.78;29373;202;63004;-64
2023/01/19 00:27:25;;;;;;;0.70;0.70;;;;;;;-2.98;85.05;95805.62;29373;202;63008;-66
2023/01/19 00:27:56;;;;;;;0.70;0.70;;;;;;;-2.99;85.02;95809.31;29371;203;64009;-65
2023/01/19 00:28:31;;;;;;;0.70;0.70;;;;;;;-3.01;85.28;95811.41;29373;208;63009;-63
2023/01/19 00:29:03;;;;;;;0.70;0.70;;;;;;;-3.00;85.34;95807.69;29373;231;63005;-64
2023/01/19 00:29:35;;;;;;;0.70;0.70;;;;;;;-3.01;85.52;95806.09;29373;220;63014;-64
2023/01/19 00:30:07;;;;;;;0.70;0.70;;;;;;;-2.98;85.82;95807.47;29373;197;63005;-65
2023/01/19 00:30:40;;;;;;;0.70;0.70;;;;;;;-2.99;85.76;95809.31;29373;222;63009;-64
2023/01/19 00:31:12;;;;;;;0.70;0.70;;;;;;;-2.99;85.77;95811.97;29373;219;63005;-65
2023/01/19 00:31:43;;;;;;;0.75;0.75;;;;;;;-2.97;85.45;95811.75;29373;256;63009;-63
2023/01/19 00:32:16;;;;;;;0.70;0.70;;;;;;;-2.95;85.58;95809.66;29373;207;63004;-64
2023/01/19 00:32:48;;;;;;;0.70;0.70;;;;;;;-2.97;85.44;95804.59;29373;221;63009;-65
2023/01/19 00:33:19;;;;;;;0.70;0.70;;;;;;;-2.99;85.65;95814.63;29371;269;64009;-64
2023/01/19 00:33:51;;;;;;;0.70;0.70;;;;;;;-3.03;85.69;95811.63;29373;400;63009;-65
2023/01/19 00:34:22;;;;;;;0.70;0.70;;;;;;;-3.01;85.91;95816.72;29373;301;63004;-64
2023/01/19 00:34:53;;;;;;;0.70;0.70;;;;;;;-3.03;86.00;95813.47;29373;354;63008;-64
2023/01/19 00:35:25;;;;;;;0.70;0.70;;;;;;;-3.04;86.10;95810.00;29373;306;63005;-65
2023/01/19 00:35:56;;;;;;;0.70;0.70;;;;;;;-2.98;85.88;95816.25;29373;233;63009;-64
2023/01/19 00:36:28;;;;;;;0.70;0.70;;;;;;;-2.98;85.99;95818.09;29373;210;63005;-67
2023/01/19 00:37:01;;;;;;;0.70;0.70;;;;;;;-3.01;85.79;95816.72;29373;197;63009;-64
2023/01/19 00:37:33;;;;;;;0.70;0.70;;;;;;;-3.03;85.56;95818.78;29373;218;63005;-64
2023/01/19 00:38:05;;;;;;;0.70;0.70;;;;;;;-3.03;85.67;95816.13;29373;339;63009;-66
2023/01/19 00:38:37;;;;;;;0.70;0.70;;;;;;;-2.98;85.52;95812.78;29371;212;64009;-63
2023/01/19 00:39:09;;;;;;;0.70;0.70;;;;;;;-3.01;85.78;95811.41;29373;300;63009;-64
2023/01/19 00:39:40;;;;;;;0.73;0.73;;;;;;;-3.02;85.70;95812.44;29373;385;63000;-64
2023/01/19 00:40:12;;;;;;;0.70;0.70;;;;;;;-3.05;86.15;95818.22;29373;220;63009;-64
2023/01/19 00:40:44;;;;;;;0.70;0.70;;;;;;;-3.08;85.98;95806.22;29371;228;64009;-65
2023/01/19 00:41:16;;;;;;;0.70;0.70;;;;;;;-3.08;86.01;95813.38;29373;202;63009;-65
2023/01/19 00:42:43;;;;;;;0.73;0.73;;;;;;;-3.07;86.03;95813.12;29373;219;63008;-65
2023/01/19 00:43:14;;;;;;;0.70;0.70;;;;;;;-3.04;86.15;95814.50;29373;222;63005;-66
2023/01/19 00:43:45;;;;;;;0.75;0.75;;;;;;;-3.01;85.73;95811.41;29373;203;63009;-65
2023/01/19 00:44:16;;;;;;;0.80;0.80;;;;;;;-3.00;85.64;95818.31;29373;215;63005;-65
2023/01/19 00:44:47;;;;;;;0.90;0.90;;;;;;;-3.00;85.68;95818.31;29371;216;64013;-67
2023/01/19 00:45:21;;;;;;;0.85;0.85;;;;;;;-3.00;85.64;95813.00;29373;262;63005;-65
2023/01/19 00:45:52;;;;;;;0.70;0.70;;;;;;;-3.01;85.41;95816.72;29373;319;63009;-65
2023/01/19 00:46:25;;;;;;;0.70;0.70;;;;;;;-3.00;85.80;95807.69;29373;210;63005;-65
2023/01/19 00:46:57;;;;;;;0.70;0.70;;;;;;;-3.03;85.70;95813.47;29373;331;63005;-64
2023/01/19 00:47:29;;;;;;;1.00;1.00;;;;;;;-3.07;85.86;95813.12;29373;202;63004;-64
2023/01/19 00:48:04;;;;;;;0.70;0.70;;;;;;;-3.14;86.29;95814.31;29373;220;63009;-65
2023/01/19 00:48:35;;;;;;;1.08;1.08;;;;;;;-3.15;85.97;95818.81;29371;225;64009;-65
2023/01/19 00:49:06;;;;;;;0.70;0.70;;;;;;;-3.11;86.05;95817.28;29373;225;63009;-63
2023/01/19 00:49:41;;;;;;;0.80;0.80;;;;;;;-3.10;85.72;95818.09;29373;249;63004;-64
2023/01/19 00:50:15;;;;;;;0.70;0.70;;;;;;;-3.04;85.69;95825.13;29373;198;63008;-63
2023/01/19 00:50:47;;;;;;;0.80;0.80;;;;;;;-3.04;85.43;95815.31;29373;235;63005;-63
2023/01/19 00:51:19;;;;;;;0.70;0.70;;;;;;;-3.03;85.27;95819.59;29373;218;63009;-65
2023/01/19 00:51:50;;;;;;;0.70;0.70;;;;;;;-3.06;85.45;95814.75;29373;218;63009;-65
2023/01/19 00:52:21;;;;;;;0.70;0.70;;;;;;;-3.08;85.59;95816.03;29371;216;64013;-65
2023/01/19 00:52:54;;;;;;;0.70;0.70;;;;;;;-3.14;86.02;95812.47;29373;198;63005;-64
2023/01/19 00:53:31;;;;;;;0.70;0.70;;;;;;;-3.17;85.96;95820.09;29373;209;63009;-65
2023/01/19 00:54:03;;;;;;;0.80;0.80;;;;;;;-3.19;86.62;95819.50;29373;279;63005;-63
2023/01/19 00:54:35;;;;;;;0.70;0.70;;;;;;;-3.22;86.59;95819.97;29373;218;63009;-64
2023/01/19 00:55:08;;;;;;;0.70;0.70;;;;;;;-3.23;86.63;95818.38;29373;277;63004;-64
2023/01/19 00:55:40;;;;;;;2.30;2.20;;;;;;;-3.22;86.56;95817.31;29373;214;63009;-64
2023/01/19 00:56:11;;;;;;;0.70;0.70;;;;;;;-3.21;86.34;95819.75;29373;207;63004;-65
2023/01/19 00:56:45;;;;;;;0.70;0.70;;;;;;;-3.21;86.58;95816.28;29373;202;63009;-64
2023/01/19 00:57:18;;;;;;;0.60;0.60;;;;;;;-3.22;86.47;95820.78;29373;297;63004;-65
2023/01/19 00:57:49;;;;;;;0.90;0.90;;;;;;;-3.20;86.25;95813.41;29371;216;64013;-64
2023/01/19 00:58:21;;;;;;;0.70;0.70;;;;;;;-3.19;86.36;95814.22;29373;213;63005;-64
2023/01/19 00:58:53;;;;;;;0.70;0.70;;;;;;;-3.20;86.39;95821.38;29373;361;63009;-65
2023/01/19 00:59:25;;;;;;;0.70;0.70;;;;;;;-3.18;85.79;95813.97;29373;263;63005;-66
2023/01/19 00:59:56;;;;;;;0.70;0.70;;;;;;;-3.20;86.06;95820.56;29373;236;63009;-65
2023/01/19 01:00:29;;;;;;;0.70;0.70;;;;;;;-3.24;85.79;95816.75;29373;299;63016;-64
2023/01/19 01:01:04;;;;;;;0.70;0.70;;;;;;;-3.27;86.18;95814.56;29373;328;63009;-64
2023/01/19 01:01:36;;;;;;;0.73;0.73;;;;;;;-3.29;86.30;95813.97;29373;252;63005;-65
2023/01/19 01:02:07;;;;;;;0.70;0.70;;;;;;;-3.31;86.39;95816.06;29373;238;63009;-65
2023/01/19 01:02:40;;;;;;;0.70;0.70;;;;;;;-3.29;86.76;95827.25;29371;207;64009;-65
2023/01/19 01:03:11;;;;;;;0.80;0.80;;;;;;;-3.27;86.86;95817.22;29373;280;63014;-64
2023/01/19 01:03:43;;;;;;;0.70;0.70;;;;;;;-3.27;86.75;95822.50;29372;202;64004;-64
2023/01/19 01:04:17;;;;;;;0.70;0.70;;;;;;;-3.27;86.88;95817.22;29373;221;63004;-64
2023/01/19 01:04:53;;;;;;;0.70;0.70;;;;;;;-3.24;86.68;95816.75;29373;222;63004;-65
2023/01/19 01:05:24;;;;;;;0.90;0.90;;;;;;;-3.24;86.51;95816.75;29373;196;63008;-65
2023/01/19 01:05:56;;;;;;;0.70;0.70;;;;;;;-3.24;86.62;95819.41;29373;216;63005;-65
2023/01/19 01:06:27;;;;;;;0.70;0.70;;;;;;;-3.26;86.31;95824.94;29373;280;63009;-64
2023/01/19 01:06:58;;;;;;;4.20;3.80;;;;;;;-3.27;86.35;95823.31;29373;290;63005;-64
2023/01/19 01:07:30;;;;;;;0.70;0.70;;;;;;;-3.28;86.19;95824.37;29373;230;63016;-67
2023/01/19 01:08:04;;;;;;;0.70;0.70;;;;;;;-3.29;86.69;95819.28;29372;214;64009;-64
2023/01/19 01:08:38;;;;;;;0.70;0.70;;;;;;;-3.32;86.39;95819.75;29372;241;64009;-64
2023/01/19 01:09:12;;;;;;;0.80;0.80;;;;;;;-3.33;86.45;95818.13;29373;206;63005;-64
2023/01/19 01:09:43;;;;;;;0.60;0.60;;;;;;;-3.33;87.05;95823.44;29373;272;63009;-64
2023/01/19 01:10:19;;;;;;;0.98;0.95;;;;;;;-3.32;86.66;95822.41;29371;297;64009;-65
2023/01/19 01:10:50;;;;;;;0.80;0.80;;;;;;;-3.31;86.96;95816.06;29373;212;63009;-64
2023/01/19 01:11:22;;;;;;;0.70;0.70;;;;;;;-3.34;86.91;95819.16;29373;214;63004;-64
2023/01/19 01:11:55;;;;;;;0.70;0.70;;;;;;;-3.30;87.08;95822.97;29373;213;63009;-65
2023/01/19 01:12:27;;;;;;;0.70;0.70;;;;;;;-3.28;87.08;95828.88;29373;219;63004;-64
2023/01/19 01:12:58;;;;;;;0.70;0.70;;;;;;;-3.28;86.67;95820.91;29373;232;63008;-63
2023/01/19 01:13:31;;;;;;;0.70;0.70;;;;;;;-3.28;87.02;95820.91;29373;227;63005;-65
2023/01/19 01:14:02;;;;;;;0.70;0.70;;;;;;;-3.30;86.84;95825.63;29373;224;63009;-65
2023/01/19 01:14:34;;;;;;;0.62;0.62;;;;;;;-3.31;86.77;95822.16;29373;223;63018;-65
2023/01/19 01:15:09;;;;;;;0.70;0.70;;;;;;;-3.34;87.15;95821.81;29373;234;63009;-64
2023/01/19 01:15:40;;;;;;;0.82;0.82;;;;;;;-3.39;86.81;95820.66;29371;299;64009;-65
2023/01/19 01:16:16;;;;;;;0.70;0.70;;;;;;;-3.37;87.13;95820.44;29373;207;63009;-65
2023/01/19 01:16:48;;;;;;;0.70;0.70;;;;;;;-3.38;87.14;95826.78;29371;354;64009;-63
2023/01/19 01:17:23;;;;;;;1.25;1.25;;;;;;;-3.39;87.26;95825.97;29373;224;63009;-63
2023/01/19 01:17:57;;;;;;;2.97;2.78;;;;;;;-3.32;86.83;95825.06;29373;214;63004;-64
2023/01/19 01:18:28;;;;;;;0.70;0.70;;;;;;;-3.31;86.43;95822.16;29373;208;63009;-64
2023/01/19 01:19:00;;;;;;;0.70;0.70;;;;;;;-3.29;86.73;95821.94;29373;240;63004;-65
2023/01/19 01:19:34;;;;;;;0.70;0.70;;;;;;;-3.28;86.37;95823.56;29373;292;63008;-64
2023/01/19 01:20:06;;;;;;;0.70;0.70;;;;;;;-3.28;86.06;95826.22;29373;272;63004;-64
2023/01/19 01:20:38;;;;;;;0.70;0.70;;;;;;;-3.27;86.01;95822.50;29373;238;63009;-65
2023/01/19 01:21:09;;;;;;;0.80;0.80;;;;;;;-3.28;86.16;95826.22;29373;212;63005;-64
2023/01/19 01:21:41;;;;;;;0.70;0.70;;;;;;;-3.32;86.08;95825.06;29371;260;64001;-64
2023/01/19 01:22:12;;;;;;;0.70;0.70;;;;;;;-3.33;86.11;95828.75;29373;197;63005;-64
2023/01/19 01:22:46;;;;;;;0.70;0.70;;;;;;;-3.33;86.18;95823.44;29373;222;63009;-65
2023/01/19 01:23:21;;;;;;;0.70;0.70;;;;;;;-3.34;86.20;95827.94;29373;362;63005;-64
2023/01/19 01:23:52;;;;;;;0.70;0.70;;;;;;;-3.34;86.79;95832.44;29373;216;63009;-63
2023/01/19 01:24:27;;;;;;;0.70;0.70;;;;;;;-3.32;86.67;95825.06;29373;202;63000;-63
2023/01/19 01:25:01;;;;;;;0.70;0.70;;;;;;;-3.32;86.71;95831.16;29373;213;63009;-63
2023/01/19 01:25:36;;;;;;;0.70;0.70;;;;;;;-3.35;86.79;95830.81;29373;246;63004;-64
2023/01/19 01:26:09;;;;;;;0.90;0.90;;;;;;;-3.37;86.45;95826.56;29373;281;63009;-64
2023/01/19 01:26:43;;;;;;;0.70;0.70;;;;;;;-3.37;86.65;95831.84;29371;215;64008;-64
2023/01/19 01:27:15;;;;;;;0.80;0.80;;;;;;;-3.40;86.83;95824.34;29373;360;63008;-63
2023/01/19 01:27:46;;;;;;;0.70;0.70;;;;;;;-3.37;86.31;95833.69;29373;202;63005;-64
2023/01/19 01:28:17;;;;;;;0.70;0.70;;;;;;;-3.32;86.05;95830.34;29373;318;63009;-64
2023/01/19 01:28:49;;;;;;;0.70;0.70;;;;;;;-3.34;86.10;95829.78;29373;347;63011;-62
2023/01/19 01:29:20;;;;;;;0.60;0.60;;;;;;;-3.32;85.89;95827.69;29373;230;63027;-64
2023/01/19 01:29:52;;;;;;;0.70;0.70;;;;;;;-3.32;86.04;95830.34;29373;197;63005;-64
2023/01/19 01:30:23;;;;;;;0.90;0.90;;;;;;;-3.37;86.37;95829.19;29373;233;63009;-64
2023/01/19 01:30:55;;;;;;;0.70;0.70;;;;;;;-3.39;86.56;95831.28;29373;230;63005;-65
2023/01/19 01:31:27;;;;;;;0.70;0.70;;;;;;;-3.41;86.43;95828.03;29373;196;63009;-66
2023/01/19 01:31:58;;;;;;;0.70;0.70;;;;;;;-3.42;86.59;95825.63;29371;218;64009;-63
2023/01/19 01:32:30;;;;;;;0.70;0.70;;;;;;;-3.43;86.90;95834.63;29373;218;63009;-64
2023/01/19 01:33:01;;;;;;;0.70;0.70;;;;;;;-3.43;86.65;95832.78;29373;245;63004;-63
2023/01/19 01:33:33;;;;;;;0.70;0.70;;;;;;;-3.45;86.72;95832.19;29373;370;63009;-63
2023/01/19 01:34:04;;;;;;;0.70;0.70;;;;;;;-3.47;86.71;95831.66;29373;283;63004;-64
2023/01/19 01:34:35;;;;;;;0.73;0.73;;;;;;;-3.47;87.02;95829.00;29373;236;63008;-64
2023/01/19 01:35:08;;;;;;;3.35;3.08;;;;;;;-3.45;87.18;95831.37;29373;212;63011;-64
2023/01/19 01:35:39;;;;;;;0.70;0.70;;;;;;;-3.47;86.94;95834.31;29373;351;63009;-64
2023/01/19 01:36:11;;;;;;;0.75;0.75;;;;;;;-3.46;87.00;95835.88;29373;239;63005;-64
2023/01/19 01:36:43;;;;;;;0.70;0.70;;;;;;;-3.50;86.79;95834.75;29373;199;63028;-65
2023/01/19 01:37:14;;;;;;;0.70;0.70;;;;;;;-3.51;87.46;95835.78;29372;211;64009;-64
2023/01/19 01:37:45;;;;;;;0.73;0.73;;;;;;;-3.52;87.89;95842.13;29373;197;63009;-64
2023/01/19 01:38:17;;;;;;;0.70;0.70;;;;;;;-3.53;87.67;95835.22;29373;232;63005;-64
2023/01/19 01:38:48;;;;;;;1.00;1.00;;;;;;;-3.51;87.54;95832.34;29373;376;63009;-63
2023/01/19 01:39:21;;;;;;;0.70;0.70;;;;;;;-3.48;87.36;95837.19;29373;203;63004;-64
2023/01/19 01:39:52;;;;;;;0.70;0.70;;;;;;;-3.49;87.00;95836.38;29373;311;63009;-64
2023/01/19 01:40:23;;;;;;;0.70;0.70;;;;;;;-3.50;87.37;95834.75;29373;204;63004;-63
2023/01/19 01:40:54;;;;;;;0.90;0.90;;;;;;;-3.51;87.10;95832.34;29373;275;63009;-64
2023/01/19 01:41:28;;;;;;;0.80;0.80;;;;;;;-3.51;87.43;95838.44;29371;202;64009;-65
2023/01/19 01:42:00;;;;;;;0.70;0.70;;;;;;;-3.46;86.81;95835.88;29373;202;63008;-65
2023/01/19 01:42:33;;;;;;;0.70;0.70;;;;;;;-3.43;86.76;95832.78;29373;383;63005;-64
2023/01/19 01:43:08;;;;;;;0.70;0.70;;;;;;;-3.41;86.80;95838.66;29373;197;63009;-65
2023/01/19 01:43:57;;;;;;;0.70;0.70;;;;;;;-3.43;86.49;95835.44;29373;345;63005;-64
2023/01/19 01:44:52;;;;;;;0.70;0.70;;;;;;;-3.43;86.39;95839.91;29373;222;63009;-65
2023/01/19 01:45:34;;;;;;;0.80;0.80;;;;;;;-3.41;86.38;95837.84;29373;216;63009;-65
2023/01/19 01:46:06;;;;;;;0.80;0.80;;;;;;;-3.43;86.08;95843.38;29371;334;64009;-64
2023/01/19 01:46:37;;;;;;;0.70;0.70;;;;;;;-3.44;86.02;95841.75;29373;330;63009;-64
2023/01/19 01:47:08;;;;;;;0.70;0.70;;;;;;;-3.46;86.56;95837.72;29373;341;63004;-64
2023/01/19 01:47:47;;;;;;;0.70;0.70;;;;;;;-3.48;86.66;95840.63;29373;204;63009;-65
2023/01/19 01:48:25;;;;;;;0.70;0.70;;;;;;;-3.49;86.56;95839.03;29371;380;64009;-63
2023/01/19 01:49:09;;;;;;;0.70;0.70;;;;;;;-3.50;86.70;95842.72;29373;232;63009;-64
2023/01/19 01:49:41;;;;;;;0.98;0.98;;;;;;;-3.49;86.78;95836.38;29373;281;63004;-64
2023/01/19 01:50:19;;;;;;;0.70;0.70;;;;;;;-3.43;86.44;95829.31;29373;233;63009;-63
2023/01/19 01:51:52;;;;;;;0.70;0.70;;;;;;;-3.42;86.92;95834.38;29373;202;63009;-64
2023/01/19 01:52:26;;;;;;;0.62;0.62;;;;;;;-3.42;86.87;95837.03;29373;205;63005;-64
2023/01/19 01:53:07;;;;;;;0.80;0.80;;;;;;;-3.42;86.69;95837.03;29373;213;63009;-64
2023/01/19 01:53:39;;;;;;;0.70;0.70;;;;;;;-3.42;86.68;95831.72;29393;233;64009;-64
2023/01/19 01:54:31;;;;;;;0.65;0.65;;;;;;;-3.42;87.09;95831.72;29395;219;63009;-64
2023/01/19 01:55:08;;;;;;;0.70;0.70;;;;;;;-3.41;86.38;95836.00;29395;313;63004;-63
2023/01/19 01:55:47;;;;;;;0.70;0.70;;;;;;;-3.39;85.94;95835.78;29395;200;63009;-65
2023/01/19 01:56:25;;;;;;;0.70;0.70;;;;;;;-3.39;86.19;95838.44;29373;215;63004;-63
2023/01/19 01:57:02;;;;;;;0.73;0.73;;;;;;;-3.41;86.05;95833.34;29373;198;63008;-64
2023/01/19 01:57:37;;;;;;;0.70;0.70;;;;;;;-3.39;85.89;95836.59;29373;275;63005;-65
2023/01/19 01:58:10;;;;;;;0.70;0.70;;;;;;;-3.39;86.29;95836.59;29371;256;64014;-64
2023/01/19 01:58:42;;;;;;;0.70;0.70;;;;;;;-3.42;86.29;95836.22;29371;318;64009;-65
2023/01/19 01:59:39;;;;;;;0.82;0.82;;;;;;;-3.42;86.87;95833.59;29373;202;63009;-64
2023/01/19 02:00:12;;;;;;;0.80;0.80;;;;;;;-3.41;86.73;95833.34;29373;214;63005;-65
2023/01/19 02:02:53;;;;;;;0.70;0.70;;;;;;;-3.37;86.06;95834.50;29373;234;63009;-64
2023/01/19 02:03:26;;;;;;;0.80;0.80;;;;;;;-3.42;86.09;95831.72;29373;226;63004;-64
2023/01/19 02:03:58;;;;;;;0.70;0.70;;;;;;;-3.44;86.31;95844.41;29371;220;64013;-63
2023/01/19 02:04:30;;;;;;;0.90;0.90;;;;;;;-3.43;86.42;95834.63;29373;379;63004;-65
2023/01/19 02:05:08;;;;;;;0.82;0.82;;;;;;;-3.44;86.14;95843.59;29373;206;63024;-64
2023/01/19 02:05:41;;;;;;;0.70;0.70;;;;;;;-3.43;86.24;95840.72;29373;212;63005;-65
2023/01/19 02:06:13;;;;;;;0.70;0.70;;;;;;;-3.43;86.48;95839.91;29373;197;63019;-64
2023/01/19 02:13:17;;;;;;;0.70;0.70;;;;;;;-3.32;85.90;95830.34;29395;242;63009;-63
2023/01/19 02:13:49;;;;;;;0.70;0.70;;;;;;;-3.32;85.65;95833.81;29373;253;63005;-64
2023/01/19 02:14:21;;;;;;;0.75;0.75;;;;;;;-3.33;85.81;95834.03;29371;212;64013;-64
2023/01/19 02:14:52;;;;;;;0.70;0.70;;;;;;;-3.35;85.72;95842.22;29373;228;63005;-63
2023/01/19 02:15:23;;;;;;;0.80;0.80;;;;;;;-3.36;86.32;95835.31;29373;209;63009;-64
2023/01/19 02:15:59;;;;;;;0.70;0.70;;;;;;;-3.34;86.31;95829.78;29373;233;63005;-63
2023/01/19 02:16:32;;;;;;;0.75;0.75;;;;;;;-3.33;86.45;95828.75;29373;202;63009;-63
2023/01/19 02:17:07;;;;;;;0.70;0.70;;;;;;;-3.33;86.30;95828.75;29373;231;63004;-64
2023/01/19 02:17:38;;;;;;;0.70;0.70;;;;;;;-3.34;86.16;95827.94;29373;385;63009;-65
2023/01/19 02:18:09;;;;;;;0.68;0.68;;;;;;;-3.33;85.97;95831.41;29373;237;63004;-64
2023/01/19 02:18:42;;;;;;;0.70;0.70;;;;;;;-3.35;85.63;95825.50;29373;218;63013;-63
2023/01/19 02:19:20;;;;;;;0.70;0.70;;;;;;;-3.37;85.73;95823.91;29373;322;63004;-66
2023/01/19 02:19:53;;;;;;;0.70;0.70;;;;;;;-3.33;85.99;95831.41;29371;238;64013;-64
2023/01/19 02:20:28;;;;;;;0.70;0.70;;;;;;;-3.31;86.02;95829.31;29373;209;63005;-63
2023/01/19 02:21:30;;;;;;;0.70;0.70;;;;;;;-3.30;86.31;95828.28;29373;212;63009;-63
2023/01/19 02:22:30;;;;;;;0.80;0.80;;;;;;;-3.30;85.61;95830.94;29395;219;63005;-64
2023/01/19 02:23:14;;;;;;;0.70;0.70;;;;;;;-3.31;85.37;95821.38;29394;214;64013;-63
2023/01/19 02:24:01;;;;;;;0.70;0.70;;;;;;;-3.29;85.29;95824.59;29373;319;63004;-64
2023/01/19 02:24:33;;;;;;;0.70;0.70;;;;;;;-3.30;85.62;95817.66;29373;215;63009;-64
2023/01/19 02:25:06;;;;;;;0.70;0.70;;;;;;;-3.31;85.80;95827.47;29373;207;63004;-63
2023/01/19 02:25:39;;;;;;;0.70;0.70;;;;;;;-3.30;85.92;95820.31;29371;205;64013;-64
2023/01/19 02:26:15;;;;;;;0.70;0.70;;;;;;;-3.29;85.75;95827.25;29373;197;63004;-64
2023/01/19 02:26:48;;;;;;;0.70;0.70;;;;;;;-3.30;85.77;95822.97;29373;202;63008;-64
2023/01/19 02:27:20;;;;;;;0.80;0.80;;;;;;;-3.29;85.86;95824.59;29373;228;63004;-65
2023/01/19 02:27:51;;;;;;;0.70;0.70;;;;;;;-3.30;85.79;95821.12;29373;204;63009;-64
2023/01/19 02:28:24;;;;;;;0.70;0.70;;;;;;;-3.31;85.84;95822.16;29371;216;64009;-63
2023/01/19 02:28:59;;;;;;;0.70;0.70;;;;;;;-3.31;85.76;95824.00;29373;268;63009;-63
2023/01/19 02:29:33;;;;;;;0.80;0.80;;;;;;;-3.31;85.86;95826.66;29373;209;63005;-64
2023/01/19 02:30:06;;;;;;;0.70;0.70;;;;;;;-3.33;85.82;95823.44;29373;223;63009;-64
2023/01/19 02:30:42;;;;;;;0.70;0.70;;;;;;;-3.33;85.70;95818.13;29371;294;64009;-63
2023/01/19 02:31:14;;;;;;;0.73;0.73;;;;;;;-3.32;86.06;95825.06;29373;235;63009;-64
2023/01/19 02:31:51;;;;;;;0.75;0.75;;;;;;;-3.34;85.90;95822.63;29373;372;63004;-65
2023/01/19 02:32:22;;;;;;;0.70;0.70;;;;;;;-3.29;85.50;95824.59;29373;202;63009;-64
2023/01/19 02:32:55;;;;;;;0.65;0.65;;;;;;;-3.26;85.03;95824.13;29373;198;63004;-64
2023/01/19 02:33:26;;;;;;;0.70;0.70;;;;;;;-3.26;85.31;95824.94;29373;196;63009;-64
2023/01/19 02:33:59;;;;;;;0.70;0.70;;;;;;;-3.27;85.15;95820.66;29373;232;63004;-64
2023/01/19 02:34:35;;;;;;;0.70;0.70;;;;;;;-3.28;85.35;95821.72;29373;331;63009;-64
2023/01/19 02:35:07;;;;;;;0.70;0.70;;;;;;;-3.31;85.25;95821.38;29373;230;63011;-63
2023/01/19 02:35:40;;;;;;;0.70;0.70;;;;;;;-3.29;85.36;95825.41;29371;211;64014;-63
2023/01/19 02:36:14;;;;;;;0.70;0.70;;;;;;;-3.30;85.21;95828.28;29373;226;63005;-64
2023/01/19 02:36:54;;;;;;;0.70;0.70;;;;;;;-3.33;85.29;95829.56;29373;203;63009;-63
2023/01/19 02:37:28;;;;;;;0.60;0.60;;;;;;;-3.37;85.41;95828.41;29373;197;63008;-63
2023/01/19 02:38:02;;;;;;;0.70;0.70;;;;;;;-3.37;85.80;95829.19;29373;209;63012;-64
2023/01/19 02:38:37;;;;;;;0.70;0.70;;;;;;;-3.39;85.62;95825.97;29373;218;63010;-64
2023/01/19 02:39:10;;;;;;;0.70;0.70;;;;;;;-3.42;86.17;95831.72;29373;208;63024;-62
2023/01/19 02:40:00;;;;;;;0.70;0.70;;;;;;;-3.41;85.79;95838.66;29371;291;64009;-64
2023/01/19 02:40:32;;;;;;;0.70;0.70;;;;;;;-3.38;85.66;95827.59;29373;212;63025;-62
2023/01/19 02:41:11;;;;;;;1.00;1.00;;;;;;;-3.37;85.48;95833.69;29373;209;63004;-63
2023/01/19 02:41:47;;;;;;;0.70;0.70;;;;;;;-3.41;85.82;95836.00;29373;230;63008;-64
2023/01/19 02:42:28;;;;;;;0.70;0.70;;;;;;;-3.35;85.55;95830.81;29373;205;63005;-62
2023/01/19 02:43:03;;;;;;;0.70;0.70;;;;;;;-3.38;85.62;95832.09;29395;217;63009;-63
2023/01/19 02:43:36;;;;;;;0.70;0.70;;;;;;;-3.42;85.54;95830.94;29394;197;64009;-65
2023/01/19 02:44:10;;;;;;;0.70;0.70;;;;;;;-3.49;85.46;95830.25;29373;206;63009;-64
2023/01/19 02:44:47;;;;;;;0.77;0.77;;;;;;;-3.45;85.51;95837.50;29371;234;63999;-63
2023/01/19 02:45:21;;;;;;;0.70;0.70;;;;;;;-3.44;86.10;95833.00;29373;199;63009;-64
2023/01/19 02:45:53;;;;;;;0.70;0.70;;;;;;;-3.45;86.08;95842.81;29373;241;63005;-64
2023/01/19 02:46:25;;;;;;;0.70;0.70;;;;;;;-3.46;85.94;95841.19;29373;271;63009;-64
2023/01/19 02:46:57;;;;;;;0.70;0.70;;;;;;;-3.45;86.09;95839.34;29371;197;64009;-64
2023/01/19 02:47:37;;;;;;;0.68;0.68;;;;;;;-3.47;86.40;95839.59;29373;203;63009;-64
2023/01/19 02:48:10;;;;;;;0.80;0.80;;;;;;;-3.46;86.81;95838.53;29395;253;63004;-64
2023/01/19 02:48:42;;;;;;;0.70;0.70;;;;;;;-3.46;86.67;95835.88;29395;204;63009;-64
2023/01/19 02:49:14;;;;;;;0.70;0.70;;;;;;;-3.46;86.63;95841.19;29373;226;63004;-64
2023/01/19 02:49:59;;;;;;;0.70;0.70;;;;;;;-3.45;86.30;95837.50;29371;212;64014;-64
2023/01/19 02:50:43;;;;;;;0.70;0.70;;;;;;;-3.50;86.03;95834.75;29373;199;63005;-65